ECRGM LEMZ-LEMZ
Flight info
| Callsign | ECRGM |
|---|---|
| Flight time | N/A |
| Altitude | 6000 |
| Route | COASTLINE |
| Aircraft | S22T/L-SDGRY/S |
Departure
| Time | 2026-04-19 15:55 |
|---|---|
| Airport | Aeródromo Mazaricos (LEMZ) |
Arrival
| Time | N/A |
|---|---|
| Airport | Aeródromo Mazaricos (LEMZ) |
| Time | Latitude | Longitude | Altitude | Speed | Heading |
|---|---|---|---|---|---|
| 2026-04-19 15:51 | 42.98400 | -9.00674 | 946 ft | 0 kts | 29° |
| 2026-04-19 15:53 | 42.98416 | -9.00658 | 945 ft | 7 kts | 47° |
| 2026-04-19 15:54 | 42.98422 | -9.00623 | 944 ft | 11 kts | 128° |
| 2026-04-19 15:54 | 42.98118 | -9.00421 | 960 ft | 81 kts | 156° |
| 2026-04-19 15:54 | 42.97556 | -9.00102 | 1257 ft | 88 kts | 173° |
| 2026-04-19 15:54 | 42.96973 | -9.00368 | 1555 ft | 101 kts | 223° |
| 2026-04-19 15:55 | 42.96616 | -9.01235 | 1947 ft | 109 kts | 249° |
| 2026-04-19 15:55 | 42.96480 | -9.02375 | 2103 ft | 133 kts | 260° |
| 2026-04-19 15:55 | 42.96471 | -9.03675 | 2375 ft | 141 kts | 268° |
| 2026-04-19 15:55 | 42.96477 | -9.05034 | 2545 ft | 144 kts | 266° |
| 2026-04-19 15:56 | 42.96463 | -9.06413 | 2740 ft | 146 kts | 263° |
| 2026-04-19 15:56 | 42.96404 | -9.07864 | 2762 ft | 155 kts | 263° |
| 2026-04-19 15:56 | 42.96290 | -9.09328 | 2802 ft | 159 kts | 256° |
| 2026-04-19 15:56 | 42.96061 | -9.10783 | 2861 ft | 158 kts | 255° |
| 2026-04-19 15:57 | 42.95847 | -9.12267 | 2752 ft | 165 kts | 254° |
| 2026-04-19 15:57 | 42.95461 | -9.13804 | 2547 ft | 175 kts | 249° |
| 2026-04-19 15:57 | 42.95054 | -9.15379 | 2313 ft | 179 kts | 247° |
| 2026-04-19 15:57 | 42.94607 | -9.16923 | 2147 ft | 175 kts | 243° |
| 2026-04-19 15:58 | 42.94057 | -9.18422 | 1844 ft | 177 kts | 240° |
| 2026-04-19 15:58 | 42.93449 | -9.19945 | 1334 ft | 183 kts | 234° |
| 2026-04-19 15:58 | 42.92739 | -9.21346 | 1289 ft | 151 kts | 227° |
| 2026-04-19 15:58 | 42.91969 | -9.22462 | 1221 ft | 172 kts | 225° |
| 2026-04-19 15:59 | 42.91192 | -9.23681 | 1142 ft | 174 kts | 229° |
| 2026-04-19 15:59 | 42.90452 | -9.24998 | 905 ft | 181 kts | 229° |
| 2026-04-19 15:59 | 42.89538 | -9.26171 | 799 ft | 176 kts | 216° |
| 2026-04-19 15:59 | 42.88455 | -9.26946 | 768 ft | 167 kts | 202° |
| 2026-04-19 16:00 | 42.88798 | -9.27842 | 795 ft | 182 kts | 7° |
| 2026-04-19 16:00 | 42.90060 | -9.27538 | 642 ft | 188 kts | 4° |
| 2026-04-19 16:00 | 42.91341 | -9.27620 | 661 ft | 176 kts | 343° |
| 2026-04-19 16:00 | 42.92200 | -9.28663 | 764 ft | 160 kts | 303° |
| 2026-04-19 16:01 | 42.93014 | -9.29217 | 669 ft | 167 kts | 32° |
| 2026-04-19 16:01 | 42.94096 | -9.28564 | 561 ft | 177 kts | 19° |
| 2026-04-19 16:01 | 42.95218 | -9.27837 | 577 ft | 177 kts | 31° |
| 2026-04-19 16:01 | 42.96247 | -9.27051 | 872 ft | 164 kts | 23° |
| 2026-04-19 16:02 | 42.97333 | -9.26356 | 725 ft | 181 kts | 22° |
| 2026-04-19 16:02 | 42.98143 | -9.26025 | 753 ft | 181 kts | 15° |
| 2026-04-19 16:02 | 42.99349 | -9.25631 | 973 ft | 164 kts | 11° |
| 2026-04-19 16:02 | 43.00467 | -9.25443 | 1152 ft | 169 kts | 5° |
| 2026-04-19 16:03 | 43.01665 | -9.25282 | 1159 ft | 179 kts | 17° |
| 2026-04-19 16:03 | 43.02808 | -9.24559 | 1198 ft | 179 kts | 27° |
| 2026-04-19 16:03 | 43.03897 | -9.23816 | 1443 ft | 172 kts | 26° |
| 2026-04-19 16:03 | 43.04956 | -9.23086 | 1689 ft | 169 kts | 27° |
| 2026-04-19 16:04 | 43.05999 | -9.22367 | 1902 ft | 168 kts | 28° |
| 2026-04-19 16:04 | 43.07055 | -9.21650 | 2118 ft | 170 kts | 25° |
| 2026-04-19 16:04 | 43.08091 | -9.20896 | 2352 ft | 169 kts | 28° |
| 2026-04-19 16:04 | 43.09147 | -9.20150 | 2571 ft | 172 kts | 27° |
| 2026-04-19 16:05 | 43.10205 | -9.19397 | 2790 ft | 171 kts | 27° |
| 2026-04-19 16:05 | 43.11253 | -9.18642 | 2998 ft | 171 kts | 27° |
| 2026-04-19 16:05 | 43.12340 | -9.17858 | 3010 ft | 182 kts | 27° |
| 2026-04-19 16:05 | 43.13489 | -9.17031 | 2954 ft | 191 kts | 27° |
| 2026-04-19 16:06 | 43.14618 | -9.16152 | 2900 ft | 191 kts | 72° |
| 2026-04-19 16:06 | 43.14381 | -9.16395 | 3105 ft | 152 kts | 19° |
| 2026-04-19 16:06 | 43.15197 | -9.15252 | 2841 ft | 195 kts | 70° |
| 2026-04-19 16:06 | 43.15379 | -9.14278 | 4162 ft | 61 kts | 302° |
| 2026-04-19 16:07 | 43.15778 | -9.15072 | 3825 ft | 147 kts | 331° |
| 2026-04-19 16:07 | 43.16278 | -9.14288 | 2097 ft | 225 kts | 131° |
| 2026-04-19 16:07 | 43.15318 | -9.12886 | 2238 ft | 193 kts | 133° |
| 2026-04-19 16:07 | 43.14809 | -9.11302 | 2573 ft | 166 kts | 108° |
| 2026-04-19 16:08 | 43.14572 | -9.09794 | 2879 ft | 162 kts | 105° |
| 2026-04-19 16:08 | 43.14398 | -9.08214 | 2986 ft | 171 kts | 101° |
| 2026-04-19 16:08 | 43.14234 | -9.06614 | 3160 ft | 169 kts | 101° |
| 2026-04-19 16:08 | 43.14096 | -9.04976 | 3174 ft | 176 kts | 97° |
| 2026-04-19 16:09 | 43.13948 | -9.03274 | 3176 ft | 180 kts | 99° |
| 2026-04-19 16:09 | 43.13811 | -9.01620 | 3358 ft | 173 kts | 100° |
| 2026-04-19 16:09 | 43.13690 | -8.99949 | 3408 ft | 177 kts | 97° |
| 2026-04-19 16:09 | 43.13685 | -8.98304 | 3697 ft | 169 kts | 96° |
| 2026-04-19 16:10 | 43.13580 | -8.96657 | 3839 ft | 170 kts | 98° |
| 2026-04-19 16:10 | 43.13451 | -8.95022 | 3859 ft | 177 kts | 101° |
| 2026-04-19 16:10 | 43.13401 | -8.93357 | 4073 ft | 178 kts | 93° |
| 2026-04-19 16:10 | 43.13654 | -8.91626 | 4136 ft | 183 kts | 85° |
| 2026-04-19 16:11 | 43.13513 | -8.89948 | 4077 ft | 188 kts | 105° |
| 2026-04-19 16:11 | 43.13302 | -8.88168 | 3963 ft | 194 kts | 102° |
| 2026-04-19 16:11 | 43.13069 | -8.86317 | 3710 ft | 203 kts | 105° |
| 2026-04-19 16:11 | 43.12774 | -8.84437 | 3198 ft | 205 kts | 109° |
| 2026-04-19 16:12 | 43.12310 | -8.82618 | 2743 ft | 200 kts | 116° |
| 2026-04-19 16:12 | 43.11751 | -8.81004 | 2711 ft | 177 kts | 122° |
| 2026-04-19 16:12 | 43.11169 | -8.79468 | 2285 ft | 182 kts | 120° |
| 2026-04-19 16:12 | 43.10629 | -8.77923 | 1975 ft | 179 kts | 116° |
| 2026-04-19 16:13 | 43.10326 | -8.76294 | 1862 ft | 169 kts | 87° |
| 2026-04-19 16:13 | 43.10925 | -8.75074 | 1950 ft | 144 kts | 44° |
| 2026-04-19 16:13 | 43.11429 | -8.74079 | 2033 ft | 113 kts | 101° |
| 2026-04-19 16:13 | 43.10955 | -8.74251 | 1755 ft | 110 kts | 244° |
| 2026-04-19 16:14 | 43.10678 | -8.75140 | 1455 ft | 91 kts | 245° |
| 2026-04-19 16:14 | 43.10387 | -8.75857 | 1257 ft | 82 kts | 240° |
| 2026-04-19 16:14 | 43.10116 | -8.76457 | 1263 ft | 76 kts | 234° |
| 2026-04-19 16:14 | 43.09864 | -8.77151 | 1516 ft | 87 kts | 279° |
| 2026-04-19 16:15 | 43.10445 | -8.77388 | 1790 ft | 120 kts | 22° |
| 2026-04-19 16:15 | 43.11243 | -8.76741 | 2018 ft | 135 kts | 50° |
| 2026-04-19 16:15 | 43.11760 | -8.75613 | 2422 ft | 122 kts | 70° |
| 2026-04-19 16:15 | 43.11820 | -8.74437 | 2493 ft | 121 kts | 135° |
| 2026-04-19 16:16 | 43.11171 | -8.74550 | 1912 ft | 106 kts | 206° |
| 2026-04-19 16:16 | 43.10673 | -8.75183 | 1447 ft | 93 kts | 239° |
| 2026-04-19 16:16 | 43.10373 | -8.75883 | 1251 ft | 80 kts | 240° |
| 2026-04-19 16:16 | 43.10170 | -8.76247 | 1208 ft | 0 kts | 162° |
| 2026-04-19 16:17 | 43.10210 | -8.76266 | 1211 ft | 0 kts | 161° |
| 2026-04-19 16:17 | 43.10212 | -8.76247 | 1246 ft | 0 kts | 161° |
| 2026-04-19 16:17 | 43.10229 | -8.76227 | 1211 ft | 0 kts | 161° |
| 2026-04-19 16:17 | 43.10237 | -8.76193 | 1210 ft | 13 kts | 37° |
| 2026-04-19 16:18 | 43.10307 | -8.76100 | 1211 ft | 16 kts | 40° |
| 2026-04-19 16:18 | 43.10358 | -8.76014 | 1211 ft | 9 kts | 88° |
| 2026-04-19 16:18 | 43.10346 | -8.75982 | 1210 ft | 9 kts | 132° |
| 2026-04-19 16:18 | 43.10272 | -8.76108 | 1211 ft | 52 kts | 239° |
| 2026-04-19 16:19 | 43.09957 | -8.76720 | 1286 ft | 95 kts | 231° |
| 2026-04-19 16:19 | 43.09482 | -8.77466 | 1447 ft | 116 kts | 226° |
| 2026-04-19 16:19 | 43.08987 | -8.78332 | 1853 ft | 116 kts | 264° |
| 2026-04-19 16:19 | 43.09682 | -8.78790 | 2042 ft | 152 kts | 25° |
| 2026-04-19 16:20 | 43.10234 | -8.77476 | 1959 ft | 176 kts | 73° |
| 2026-04-19 16:20 | 43.11027 | -8.76420 | 2288 ft | 168 kts | 17° |
| 2026-04-19 16:20 | 43.12123 | -8.76004 | 2124 ft | 144 kts | 40° |
| 2026-04-19 16:20 | 43.11775 | -8.75497 | 1703 ft | 119 kts | 201° |
| 2026-04-19 16:21 | 43.11125 | -8.75999 | 1265 ft | 96 kts | 213° |
| 2026-04-19 16:21 | 43.10650 | -8.76385 | 1221 ft | 65 kts | 213° |
| 2026-04-19 16:21 | 43.10509 | -8.76505 | 1217 ft | 0 kts | 210° |
| 2026-04-19 16:21 | 43.10476 | -8.76532 | 1217 ft | 8 kts | 209° |
| 2026-04-19 16:22 | 43.10474 | -8.76534 | 1216 ft | 0 kts | 208° |
| 2026-04-19 16:23 | 43.10414 | -8.76582 | 1215 ft | 43 kts | 211° |
| 2026-04-19 16:23 | 43.10254 | -8.76719 | 1222 ft | 16 kts | 168° |
| 2026-04-19 16:23 | 43.10148 | -8.76938 | 1214 ft | 0 kts | 191° |
| 2026-04-19 16:23 | 43.10105 | -8.76926 | 1231 ft | 0 kts | 90° |
| 2026-04-19 16:24 | 43.10233 | -8.76011 | 1622 ft | 142 kts | 43° |
| 2026-04-19 16:24 | 43.11133 | -8.75780 | 1690 ft | 131 kts | 356° |
| 2026-04-19 16:24 | 43.12030 | -8.75881 | 1730 ft | 125 kts | 346° |
| 2026-04-19 16:24 | 43.12190 | -8.76364 | 1781 ft | 122 kts | 184° |
| 2026-04-19 16:25 | 43.11523 | -8.75638 | 1612 ft | 161 kts | 98° |
| 2026-04-19 16:25 | 43.12357 | -8.75501 | 1848 ft | 155 kts | 349° |
| 2026-04-19 16:25 | 43.13460 | -8.75464 | 1856 ft | 158 kts | 359° |
| 2026-04-19 16:25 | 43.14502 | -8.75625 | 2069 ft | 154 kts | 342° |
| 2026-04-19 16:26 | 43.15599 | -8.75656 | 2385 ft | 154 kts | 6° |
| 2026-04-19 16:26 | 43.16676 | -8.75567 | 2606 ft | 153 kts | 0° |
| 2026-04-19 16:26 | 43.17790 | -8.75279 | 2567 ft | 175 kts | 12° |
| 2026-04-19 16:26 | 43.18952 | -8.74929 | 2759 ft | 176 kts | 9° |
| 2026-04-19 16:27 | 43.20165 | -8.74400 | 2619 ft | 190 kts | 18° |
| 2026-04-19 16:27 | 43.21439 | -8.73700 | 2431 ft | 196 kts | 25° |
| 2026-04-19 16:27 | 43.22699 | -8.72890 | 2153 ft | 202 kts | 21° |
| 2026-04-19 16:27 | 43.23978 | -8.72148 | 2153 ft | 197 kts | 20° |
| 2026-04-19 16:28 | 43.25285 | -8.71543 | 2109 ft | 197 kts | 14° |
| 2026-04-19 16:28 | 43.26641 | -8.71231 | 1892 ft | 198 kts | 6° |
| 2026-04-19 16:28 | 43.27960 | -8.70918 | 1763 ft | 196 kts | 11° |
| 2026-04-19 16:28 | 43.29024 | -8.69762 | 1600 ft | 198 kts | 56° |
| 2026-04-19 16:29 | 43.29649 | -8.68065 | 1368 ft | 201 kts | 64° |
| 2026-04-19 16:29 | 43.30154 | -8.66303 | 1337 ft | 191 kts | 70° |
| 2026-04-19 16:29 | 43.30648 | -8.64622 | 1196 ft | 193 kts | 65° |
| 2026-04-19 16:29 | 43.31197 | -8.62937 | 1005 ft | 195 kts | 65° |
| 2026-04-19 16:30 | 43.31739 | -8.61289 | 1016 ft | 186 kts | 62° |
| 2026-04-19 16:30 | 43.32215 | -8.59611 | 808 ft | 190 kts | 82° |
| 2026-04-19 16:30 | 43.31898 | -8.57870 | 669 ft | 193 kts | 111° |
| 2026-04-19 16:30 | 43.31381 | -8.56206 | 676 ft | 184 kts | 108° |
| 2026-04-19 16:31 | 43.31354 | -8.54506 | 554 ft | 181 kts | 70° |
| 2026-04-19 16:31 | 43.32172 | -8.53230 | 488 ft | 175 kts | 33° |
| 2026-04-19 16:31 | 43.33179 | -8.52288 | 372 ft | 172 kts | 36° |
| 2026-04-19 16:31 | 43.34099 | -8.51293 | 414 ft | 167 kts | 41° |
| 2026-04-19 16:32 | 43.34762 | -8.50019 | 532 ft | 165 kts | 57° |
| 2026-04-19 16:32 | 43.35422 | -8.48726 | 624 ft | 165 kts | 51° |
| 2026-04-19 16:32 | 43.36169 | -8.47464 | 605 ft | 168 kts | 51° |
| 2026-04-19 16:32 | 43.36834 | -8.46109 | 497 ft | 173 kts | 53° |
| 2026-04-19 16:33 | 43.37541 | -8.44787 | 496 ft | 171 kts | 51° |
| 2026-04-19 16:33 | 43.38130 | -8.43381 | 517 ft | 175 kts | 70° |
| 2026-04-19 16:33 | 43.38406 | -8.41732 | 388 ft | 179 kts | 70° |
| 2026-04-19 16:33 | 43.38676 | -8.40053 | 363 ft | 177 kts | 85° |
| 2026-04-19 16:34 | 43.38294 | -8.38451 | 394 ft | 175 kts | 124° |
| 2026-04-19 16:34 | 43.37310 | -8.37509 | 370 ft | 186 kts | 159° |
| 2026-04-19 16:34 | 43.36143 | -8.37249 | 868 ft | 157 kts | 177° |
| 2026-04-19 16:34 | 43.35052 | -8.37091 | 1046 ft | 160 kts | 168° |
| 2026-04-19 16:35 | 43.33980 | -8.36758 | 1075 ft | 151 kts | 169° |
| 2026-04-19 16:35 | 43.33005 | -8.36510 | 1077 ft | 134 kts | 171° |
| 2026-04-19 16:35 | 43.32145 | -8.36394 | 861 ft | 114 kts | 184° |
| 2026-04-19 16:35 | 43.31390 | -8.36727 | 581 ft | 113 kts | 217° |
| 2026-04-19 16:36 | 43.30759 | -8.37267 | 354 ft | 97 kts | 213° |
| 2026-04-19 16:36 | 43.30330 | -8.37646 | 333 ft | 32 kts | 208° |
| 2026-04-19 16:36 | 43.30245 | -8.37787 | 336 ft | 21 kts | 288° |
| 2026-04-19 16:36 | 43.30299 | -8.37919 | 334 ft | 15 kts | 307° |
| 2026-04-19 16:37 | 43.30274 | -8.37968 | 335 ft | 0 kts | 129° |
| 2026-04-19 16:38 | 43.30252 | -8.38021 | 334 ft | 0 kts | 301° |
| 2026-04-19 16:40 | 43.30249 | -8.37996 | 334 ft | 14 kts | 104° |
| 2026-04-19 16:40 | 43.30244 | -8.37806 | 334 ft | 23 kts | 116° |
| 2026-04-19 16:40 | 43.30083 | -8.37840 | 336 ft | 49 kts | 214° |
| 2026-04-19 16:40 | 43.29623 | -8.38204 | 371 ft | 97 kts | 209° |
| 2026-04-19 16:41 | 43.28996 | -8.38703 | 548 ft | 113 kts | 217° |
| 2026-04-19 16:41 | 43.28227 | -8.39129 | 774 ft | 134 kts | 154° |
| 2026-04-19 16:41 | 43.27528 | -8.38157 | 631 ft | 157 kts | 177° |
| 2026-04-19 16:41 | 43.26774 | -8.38918 | 1013 ft | 129 kts | 276° |
| 2026-04-19 16:42 | 43.27400 | -8.39645 | 1141 ft | 149 kts | 5° |
| 2026-04-19 16:42 | 43.28372 | -8.38958 | 855 ft | 156 kts | 37° |
| 2026-04-19 16:42 | 43.29178 | -8.38529 | 401 ft | 103 kts | 21° |
| 2026-04-19 16:42 | 43.29680 | -8.38163 | 334 ft | 64 kts | 26° |
| 2026-04-19 16:43 | 43.29988 | -8.37906 | 338 ft | 42 kts | 34° |
| 2026-04-19 16:43 | 43.30192 | -8.37765 | 333 ft | 27 kts | 349° |
| 2026-04-19 16:43 | 43.30311 | -8.37874 | 333 ft | 18 kts | 18° |
| 2026-04-19 16:43 | 43.30318 | -8.37913 | 334 ft | 3 kts | 224° |